Weather at Greater Cumberland Regional Airport

Public forecast

Using degrees Fahrenheit for public forecast. Weather courtesy of forecast.io.

Current aviation weather report (METAR) for Greater Cumberland Regional Airport

Retrieved 2020/09/30 18:55 UTC (10 minutes ago):

KCBE 301855Z AUTO 23014G18KT 10SM CLR 20/07 A2985 RMK AO2 T01990073

Closest aviation forecast (TAF) to Greater Cumberland Regional Airport

Closest forecast is Eastern WV Regional Airport/Shepherd Field, 38.2 nm (70.7 km) ESE. Retrieved 2020/09/30 18:39 UTC (26 minutes ago):

TAF KMRB 301736Z 3018/0118 25012G19KT P6SM FEW050 FM302300 20007KT P6SM FEW250 FM010800 22005KT P6SM FEW070 FM011200 26007KT P6SM FEW070 SCT250